Glentana, Montana
Current Conditions -  °F | °C
As of 6:53 PM on Wednesday 22 Oct 2014 (Local Time) from KGGW Reporting Station
Clear Clear  
Wind Chill: 54°   Ceiling: Unl
Heat Index: 54°   Visibility: 10mi
Dew Point: 32°   Wind: 7mph
Humidity: 43%   Direction: 240°WSW
Pressure: 29.86"   Gusts: NA
Location:  48.85°N, 106.25°W
Report Text: KGGW 230053Z AUTO 24006KT 10SM CLR 12/00 A2986 RMK AO2 SLP119 T01220000
Loading
Personal Weather Stations






























Interactive Weather Map
Tropical Storm Tracking
New forecast layout! Learn more

10-Day Weather Forecast

Advertisements
Track Severe Weather on mobile